sensor_id;sensor_type;location;lat;lon;timestamp;P1;durP1;ratioP1;P2;durP2;ratioP2
37199;SDS011;23096;50.892;16.746;2023-04-01T00:02:18;2.90;;;1.90;;
37199;SDS011;23096;50.892;16.746;2023-04-01T00:04:43;3.80;;;1.90;;
37199;SDS011;23096;50.892;16.746;2023-04-01T00:07:09;3.00;;;1.60;;
37199;SDS011;23096;50.892;16.746;2023-04-01T00:09:36;2.60;;;2.00;;
37199;SDS011;23096;50.892;16.746;2023-04-01T00:12:01;1.90;;;1.60;;
37199;SDS011;23096;50.892;16.746;2023-04-01T00:14:27;3.20;;;1.80;;
37199;SDS011;23096;50.892;16.746;2023-04-01T00:16:53;2.90;;;1.70;;
37199;SDS011;23096;50.892;16.746;2023-04-01T00:19:19;2.10;;;1.50;;
37199;SDS011;23096;50.892;16.746;2023-04-01T00:21:44;2.00;;;1.50;;
37199;SDS011;23096;50.892;16.746;2023-04-01T00:24:10;2.30;;;1.80;;
37199;SDS011;23096;50.892;16.746;2023-04-01T00:26:36;3.10;;;1.80;;
37199;SDS011;23096;50.892;16.746;2023-04-01T00:29:01;3.00;;;1.70;;
37199;SDS011;23096;50.892;16.746;2023-04-01T00:31:27;3.10;;;1.60;;
37199;SDS011;23096;50.892;16.746;2023-04-01T00:33:53;2.00;;;1.60;;
37199;SDS011;23096;50.892;16.746;2023-04-01T00:36:20;1.70;;;1.60;;
37199;SDS011;23096;50.892;16.746;2023-04-01T00:38:47;3.70;;;2.50;;
37199;SDS011;23096;50.892;16.746;2023-04-01T00:41:13;3.60;;;1.70;;
37199;SDS011;23096;50.892;16.746;2023-04-01T00:43:41;2.10;;;1.50;;
37199;SDS011;23096;50.892;16.746;2023-04-01T00:46:08;2.80;;;1.70;;
37199;SDS011;23096;50.892;16.746;2023-04-01T00:48:35;4.80;;;2.10;;
37199;SDS011;23096;50.892;16.746;2023-04-01T00:51:05;6.00;;;2.00;;
37199;SDS011;23096;50.892;16.746;2023-04-01T00:53:35;3.10;;;2.00;;
37199;SDS011;23096;50.892;16.746;2023-04-01T00:56:15;5.30;;;2.30;;
37199;SDS011;23096;50.892;16.746;2023-04-01T00:58:47;4.00;;;2.40;;
37199;SDS011;23096;50.892;16.746;2023-04-01T01:01:16;2.60;;;2.00;;
37199;SDS011;23096;50.892;16.746;2023-04-01T01:03:43;2.40;;;2.00;;
37199;SDS011;23096;50.892;16.746;2023-04-01T01:09:14;5.70;;;2.60;;
37199;SDS011;23096;50.892;16.746;2023-04-01T01:11:55;3.30;;;2.20;;
37199;SDS011;23096;50.892;16.746;2023-04-01T01:17:09;2.30;;;1.90;;
37199;SDS011;23096;50.892;16.746;2023-04-01T01:25:37;2.20;;;2.00;;
37199;SDS011;23096;50.892;16.746;2023-04-01T01:36:17;2.60;;;1.70;;
37199;SDS011;23096;50.892;16.746;2023-04-01T01:38:46;8.20;;;2.30;;
37199;SDS011;23096;50.892;16.746;2023-04-01T01:41:15;3.90;;;1.90;;
37199;SDS011;23096;50.892;16.746;2023-04-01T01:43:44;5.70;;;2.20;;
37199;SDS011;23096;50.892;16.746;2023-04-01T01:46:17;5.00;;;2.50;;
37199;SDS011;23096;50.892;16.746;2023-04-01T01:48:46;10.00;;;2.90;;
37199;SDS011;23096;50.892;16.746;2023-04-01T01:51:12;7.50;;;2.60;;
37199;SDS011;23096;50.892;16.746;2023-04-01T01:53:38;3.10;;;1.70;;
37199;SDS011;23096;50.892;16.746;2023-04-01T01:56:05;6.50;;;2.20;;
37199;SDS011;23096;50.892;16.746;2023-04-01T01:58:40;3.70;;;2.30;;
37199;SDS011;23096;50.892;16.746;2023-04-01T02:01:13;6.20;;;2.40;;
37199;SDS011;23096;50.892;16.746;2023-04-01T02:03:43;1.70;;;1.50;;
37199;SDS011;23096;50.892;16.746;2023-04-01T02:06:11;4.00;;;1.60;;
37199;SDS011;23096;50.892;16.746;2023-04-01T02:08:47;3.30;;;2.10;;
37199;SDS011;23096;50.892;16.746;2023-04-01T02:11:17;3.60;;;1.70;;
37199;SDS011;23096;50.892;16.746;2023-04-01T02:13:50;3.70;;;2.60;;
37199;SDS011;23096;50.892;16.746;2023-04-01T02:16:29;7.30;;;3.70;;
37199;SDS011;23096;50.892;16.746;2023-04-01T02:19:00;3.40;;;1.50;;
37199;SDS011;23096;50.892;16.746;2023-04-01T02:21:29;6.50;;;3.70;;
37199;SDS011;23096;50.892;16.746;2023-04-01T02:23:57;3.50;;;1.90;;
37199;SDS011;23096;50.892;16.746;2023-04-01T02:26:25;2.50;;;1.30;;
37199;SDS011;23096;50.892;16.746;2023-04-01T02:28:55;2.30;;;1.40;;
37199;SDS011;23096;50.892;16.746;2023-04-01T02:31:24;1.90;;;1.40;;
37199;SDS011;23096;50.892;16.746;2023-04-01T02:33:50;1.80;;;0.80;;
37199;SDS011;23096;50.892;16.746;2023-04-01T02:36:16;2.70;;;0.90;;
37199;SDS011;23096;50.892;16.746;2023-04-01T02:38:42;3.00;;;1.10;;
37199;SDS011;23096;50.892;16.746;2023-04-01T02:41:10;1.30;;;1.00;;
37199;SDS011;23096;50.892;16.746;2023-04-01T02:43:36;2.20;;;1.00;;
37199;SDS011;23096;50.892;16.746;2023-04-01T02:46:03;1.20;;;0.90;;
37199;SDS011;23096;50.892;16.746;2023-04-01T02:48:28;0.80;;;0.70;;
37199;SDS011;23096;50.892;16.746;2023-04-01T02:50:54;1.90;;;0.70;;
37199;SDS011;23096;50.892;16.746;2023-04-01T02:53:20;1.00;;;0.80;;
37199;SDS011;23096;50.892;16.746;2023-04-01T02:55:45;1.30;;;1.00;;
37199;SDS011;23096;50.892;16.746;2023-04-01T02:58:11;2.70;;;1.00;;
37199;SDS011;23096;50.892;16.746;2023-04-01T03:00:36;1.00;;;0.90;;
37199;SDS011;23096;50.892;16.746;2023-04-01T03:03:03;1.10;;;1.00;;
37199;SDS011;23096;50.892;16.746;2023-04-01T03:05:28;3.40;;;1.10;;
37199;SDS011;23096;50.892;16.746;2023-04-01T03:07:54;1.30;;;1.10;;
37199;SDS011;23096;50.892;16.746;2023-04-01T03:10:21;1.30;;;1.20;;
37199;SDS011;23096;50.892;16.746;2023-04-01T03:12:47;2.00;;;1.40;;
37199;SDS011;23096;50.892;16.746;2023-04-01T03:15:13;1.30;;;1.10;;
37199;SDS011;23096;50.892;16.746;2023-04-01T03:17:40;1.60;;;1.00;;
37199;SDS011;23096;50.892;16.746;2023-04-01T03:20:07;1.50;;;0.90;;
37199;SDS011;23096;50.892;16.746;2023-04-01T03:22:34;2.00;;;1.50;;
37199;SDS011;23096;50.892;16.746;2023-04-01T03:25:01;2.00;;;1.10;;
37199;SDS011;23096;50.892;16.746;2023-04-01T03:27:27;2.20;;;1.60;;
37199;SDS011;23096;50.892;16.746;2023-04-01T03:29:52;1.50;;;1.30;;
37199;SDS011;23096;50.892;16.746;2023-04-01T03:32:18;1.70;;;1.00;;
37199;SDS011;23096;50.892;16.746;2023-04-01T03:34:44;4.80;;;1.50;;
37199;SDS011;23096;50.892;16.746;2023-04-01T03:37:09;1.10;;;1.00;;
37199;SDS011;23096;50.892;16.746;2023-04-01T03:39:35;1.90;;;1.70;;
37199;SDS011;23096;50.892;16.746;2023-04-01T03:42:01;1.20;;;1.00;;
37199;SDS011;23096;50.892;16.746;2023-04-01T03:44:30;2.10;;;1.00;;
37199;SDS011;23096;50.892;16.746;2023-04-01T03:46:56;2.30;;;1.00;;
37199;SDS011;23096;50.892;16.746;2023-04-01T03:49:22;2.50;;;0.80;;
37199;SDS011;23096;50.892;16.746;2023-04-01T03:51:48;1.70;;;1.00;;
37199;SDS011;23096;50.892;16.746;2023-04-01T03:54:13;1.20;;;1.10;;
37199;SDS011;23096;50.892;16.746;2023-04-01T03:56:39;2.80;;;1.20;;
37199;SDS011;23096;50.892;16.746;2023-04-01T03:59:06;1.50;;;1.00;;
37199;SDS011;23096;50.892;16.746;2023-04-01T04:01:32;2.20;;;1.00;;
37199;SDS011;23096;50.892;16.746;2023-04-01T04:03:59;1.70;;;1.40;;
37199;SDS011;23096;50.892;16.746;2023-04-01T04:06:26;1.50;;;1.00;;
37199;SDS011;23096;50.892;16.746;2023-04-01T04:08:52;1.80;;;0.90;;
37199;SDS011;23096;50.892;16.746;2023-04-01T04:11:19;2.70;;;1.00;;
37199;SDS011;23096;50.892;16.746;2023-04-01T04:13:46;1.30;;;1.10;;
37199;SDS011;23096;50.892;16.746;2023-04-01T04:16:13;2.70;;;1.80;;
37199;SDS011;23096;50.892;16.746;2023-04-01T04:18:43;2.10;;;1.40;;
37199;SDS011;23096;50.892;16.746;2023-04-01T04:21:12;1.60;;;0.80;;
37199;SDS011;23096;50.892;16.746;2023-04-01T04:23:40;1.90;;;0.90;;
37199;SDS011;23096;50.892;16.746;2023-04-01T04:26:07;1.30;;;1.20;;
37199;SDS011;23096;50.892;16.746;2023-04-01T04:28:35;2.40;;;1.00;;
37199;SDS011;23096;50.892;16.746;2023-04-01T04:31:03;2.70;;;1.00;;
37199;SDS011;23096;50.892;16.746;2023-04-01T04:33:30;0.80;;;0.80;;
37199;SDS011;23096;50.892;16.746;2023-04-01T04:35:56;1.70;;;0.80;;
37199;SDS011;23096;50.892;16.746;2023-04-01T04:38:23;0.90;;;0.80;;
37199;SDS011;23096;50.892;16.746;2023-04-01T04:40:50;1.10;;;0.90;;
37199;SDS011;23096;50.892;16.746;2023-04-01T04:43:15;1.50;;;0.90;;
37199;SDS011;23096;50.892;16.746;2023-04-01T04:45:42;3.10;;;1.60;;
37199;SDS011;23096;50.892;16.746;2023-04-01T04:48:09;3.50;;;1.40;;
37199;SDS011;23096;50.892;16.746;2023-04-01T04:50:39;1.10;;;0.90;;
37199;SDS011;23096;50.892;16.746;2023-04-01T04:53:05;1.40;;;0.80;;
37199;SDS011;23096;50.892;16.746;2023-04-01T04:55:31;3.00;;;0.90;;
37199;SDS011;23096;50.892;16.746;2023-04-01T04:58:13;1.10;;;0.80;;
37199;SDS011;23096;50.892;16.746;2023-04-01T05:00:40;2.30;;;1.30;;
37199;SDS011;23096;50.892;16.746;2023-04-01T05:03:10;1.70;;;1.20;;
37199;SDS011;23096;50.892;16.746;2023-04-01T05:05:36;2.70;;;1.20;;
37199;SDS011;23096;50.892;16.746;2023-04-01T05:08:03;2.10;;;1.00;;
37199;SDS011;23096;50.892;16.746;2023-04-01T05:10:29;1.50;;;0.90;;
37199;SDS011;23096;50.892;16.746;2023-04-01T05:12:55;1.20;;;0.80;;
37199;SDS011;23096;50.892;16.746;2023-04-01T05:15:22;0.90;;;0.70;;
37199;SDS011;23096;50.892;16.746;2023-04-01T05:17:47;1.60;;;0.60;;
37199;SDS011;23096;50.892;16.746;2023-04-01T05:20:13;2.50;;;1.00;;
37199;SDS011;23096;50.892;16.746;2023-04-01T05:22:40;0.60;;;0.60;;
37199;SDS011;23096;50.892;16.746;2023-04-01T05:25:07;1.70;;;1.10;;
37199;SDS011;23096;50.892;16.746;2023-04-01T05:27:33;1.50;;;0.90;;
37199;SDS011;23096;50.892;16.746;2023-04-01T05:29:59;4.00;;;0.90;;
37199;SDS011;23096;50.892;16.746;2023-04-01T05:32:38;0.70;;;0.60;;
37199;SDS011;23096;50.892;16.746;2023-04-01T05:35:05;1.30;;;1.00;;
37199;SDS011;23096;50.892;16.746;2023-04-01T05:37:33;2.20;;;0.90;;
37199;SDS011;23096;50.892;16.746;2023-04-01T05:39:59;2.90;;;1.00;;
37199;SDS011;23096;50.892;16.746;2023-04-01T05:42:25;1.40;;;1.20;;
37199;SDS011;23096;50.892;16.746;2023-04-01T05:44:51;2.50;;;1.10;;
37199;SDS011;23096;50.892;16.746;2023-04-01T05:47:34;1.00;;;0.70;;
37199;SDS011;23096;50.892;16.746;2023-04-01T05:50:00;3.70;;;1.40;;
37199;SDS011;23096;50.892;16.746;2023-04-01T05:52:26;1.10;;;0.90;;
37199;SDS011;23096;50.892;16.746;2023-04-01T05:54:51;0.80;;;0.80;;
37199;SDS011;23096;50.892;16.746;2023-04-01T05:57:17;1.20;;;1.00;;
37199;SDS011;23096;50.892;16.746;2023-04-01T05:59:43;2.10;;;1.10;;
37199;SDS011;23096;50.892;16.746;2023-04-01T06:02:09;5.90;;;4.30;;
37199;SDS011;23096;50.892;16.746;2023-04-01T06:04:39;2.80;;;2.00;;
37199;SDS011;23096;50.892;16.746;2023-04-01T06:07:15;2.20;;;1.50;;
37199;SDS011;23096;50.892;16.746;2023-04-01T06:09:43;2.20;;;1.40;;
37199;SDS011;23096;50.892;16.746;2023-04-01T06:12:19;4.10;;;1.50;;
37199;SDS011;23096;50.892;16.746;2023-04-01T06:20:38;1.80;;;1.60;;
37199;SDS011;23096;50.892;16.746;2023-04-01T06:26:12;2.20;;;1.50;;
37199;SDS011;23096;50.892;16.746;2023-04-01T06:31:47;3.60;;;1.70;;
37199;SDS011;23096;50.892;16.746;2023-04-01T06:34:31;3.90;;;3.50;;
37199;SDS011;23096;50.892;16.746;2023-04-01T06:42:34;3.70;;;2.00;;
37199;SDS011;23096;50.892;16.746;2023-04-01T06:46:00;3.00;;;1.90;;
37199;SDS011;23096;50.892;16.746;2023-04-01T06:49:15;1.90;;;1.50;;
37199;SDS011;23096;50.892;16.746;2023-04-01T06:55:02;3.80;;;2.40;;
37199;SDS011;23096;50.892;16.746;2023-04-01T06:57:57;3.90;;;2.70;;
37199;SDS011;23096;50.892;16.746;2023-04-01T07:05:46;6.40;;;3.00;;
37199;SDS011;23096;50.892;16.746;2023-04-01T07:08:13;4.50;;;3.10;;
37199;SDS011;23096;50.892;16.746;2023-04-01T07:10:56;4.10;;;2.20;;
37199;SDS011;23096;50.892;16.746;2023-04-01T07:13:53;3.50;;;2.60;;
37199;SDS011;23096;50.892;16.746;2023-04-01T07:19:57;4.50;;;1.80;;
37199;SDS011;23096;50.892;16.746;2023-04-01T07:25:15;3.90;;;2.50;;
37199;SDS011;23096;50.892;16.746;2023-04-01T07:27:42;3.70;;;2.40;;
37199;SDS011;23096;50.892;16.746;2023-04-01T07:30:19;3.40;;;2.40;;
37199;SDS011;23096;50.892;16.746;2023-04-01T07:33:09;4.40;;;3.20;;
37199;SDS011;23096;50.892;16.746;2023-04-01T07:36:10;4.90;;;2.70;;
37199;SDS011;23096;50.892;16.746;2023-04-01T07:50:20;4.60;;;2.70;;
37199;SDS011;23096;50.892;16.746;2023-04-01T08:02:10;2.90;;;1.80;;
37199;SDS011;23096;50.892;16.746;2023-04-01T08:10:39;8.40;;;2.30;;
37199;SDS011;23096;50.892;16.746;2023-04-01T08:17:07;5.10;;;2.60;;
37199;SDS011;23096;50.892;16.746;2023-04-01T08:23:30;4.00;;;2.10;;
37199;SDS011;23096;50.892;16.746;2023-04-01T08:25:33;4.50;;;2.40;;
37199;SDS011;23096;50.892;16.746;2023-04-01T08:30:53;4.10;;;2.20;;
37199;SDS011;23096;50.892;16.746;2023-04-01T08:36:12;2.80;;;1.40;;
37199;SDS011;23096;50.892;16.746;2023-04-01T08:41:28;4.00;;;1.70;;
37199;SDS011;23096;50.892;16.746;2023-04-01T08:56:01;1.90;;;1.70;;
37199;SDS011;23096;50.892;16.746;2023-04-01T09:09:30;4.60;;;2.10;;
37199;SDS011;23096;50.892;16.746;2023-04-01T09:14:58;6.00;;;1.90;;
37199;SDS011;23096;50.892;16.746;2023-04-01T09:43:06;7.80;;;2.40;;
37199;SDS011;23096;50.892;16.746;2023-04-01T09:57:03;5.70;;;1.50;;
37199;SDS011;23096;50.892;16.746;2023-04-01T10:17:00;3.80;;;1.20;;
37199;SDS011;23096;50.892;16.746;2023-04-01T10:28:31;4.50;;;2.00;;
37199;SDS011;23096;50.892;16.746;2023-04-01T11:45:03;4.50;;;1.90;;
37199;SDS011;23096;50.892;16.746;2023-04-01T11:53:36;3.10;;;1.20;;
37199;SDS011;23096;50.892;16.746;2023-04-01T12:07:15;5.90;;;1.90;;
37199;SDS011;23096;50.892;16.746;2023-04-01T12:09:52;4.10;;;2.40;;
37199;SDS011;23096;50.892;16.746;2023-04-01T12:19:09;5.00;;;2.70;;
37199;SDS011;23096;50.892;16.746;2023-04-01T12:21:58;3.90;;;1.50;;
37199;SDS011;23096;50.892;16.746;2023-04-01T12:24:40;4.20;;;2.60;;
37199;SDS011;23096;50.892;16.746;2023-04-01T12:30:18;3.70;;;1.40;;
37199;SDS011;23096;50.892;16.746;2023-04-01T12:41:42;2.20;;;1.10;;
37199;SDS011;23096;50.892;16.746;2023-04-01T12:55:35;2.40;;;1.00;;
37199;SDS011;23096;50.892;16.746;2023-04-01T13:03:55;3.50;;;1.70;;
37199;SDS011;23096;50.892;16.746;2023-04-01T13:15:08;10.80;;;4.20;;
37199;SDS011;23096;50.892;16.746;2023-04-01T13:29:16;7.30;;;4.00;;
37199;SDS011;23096;50.892;16.746;2023-04-01T13:37:26;3.40;;;2.10;;
37199;SDS011;23096;50.892;16.746;2023-04-01T13:40:11;2.50;;;1.20;;
37199;SDS011;23096;50.892;16.746;2023-04-01T13:57:08;4.60;;;2.20;;
37199;SDS011;23096;50.892;16.746;2023-04-01T13:59:48;3.90;;;2.60;;
37199;SDS011;23096;50.892;16.746;2023-04-01T14:02:29;8.70;;;4.20;;
37199;SDS011;23096;50.892;16.746;2023-04-01T14:13:30;4.30;;;3.20;;
37199;SDS011;23096;50.892;16.746;2023-04-01T14:24:50;10.50;;;5.70;;
37199;SDS011;23096;50.892;16.746;2023-04-01T14:38:15;14.20;;;7.90;;
37199;SDS011;23096;50.892;16.746;2023-04-01T14:40:53;14.20;;;7.20;;
37199;SDS011;23096;50.892;16.746;2023-04-01T14:43:46;10.10;;;4.80;;
37199;SDS011;23096;50.892;16.746;2023-04-01T14:49:17;6.70;;;3.70;;
37199;SDS011;23096;50.892;16.746;2023-04-01T14:51:45;7.90;;;4.30;;
37199;SDS011;23096;50.892;16.746;2023-04-01T14:59:28;7.80;;;5.00;;
37199;SDS011;23096;50.892;16.746;2023-04-01T15:04:44;12.10;;;6.90;;
37199;SDS011;23096;50.892;16.746;2023-04-01T15:10:42;6.80;;;4.10;;
37199;SDS011;23096;50.892;16.746;2023-04-01T15:37:33;14.70;;;7.20;;
37199;SDS011;23096;50.892;16.746;2023-04-01T15:48:13;14.80;;;9.00;;
37199;SDS011;23096;50.892;16.746;2023-04-01T16:01:46;12.90;;;7.10;;
37199;SDS011;23096;50.892;16.746;2023-04-01T16:04:38;18.60;;;9.40;;
37199;SDS011;23096;50.892;16.746;2023-04-01T16:07:26;10.20;;;7.10;;
37199;SDS011;23096;50.892;16.746;2023-04-01T16:12:58;11.70;;;8.20;;
37199;SDS011;23096;50.892;16.746;2023-04-01T16:15:39;7.40;;;5.00;;
37199;SDS011;23096;50.892;16.746;2023-04-01T16:18:26;10.30;;;6.00;;
37199;SDS011;23096;50.892;16.746;2023-04-01T16:24:44;9.40;;;5.30;;
37199;SDS011;23096;50.892;16.746;2023-04-01T16:29:56;12.80;;;8.00;;
37199;SDS011;23096;50.892;16.746;2023-04-01T16:34:58;14.90;;;9.10;;
37199;SDS011;23096;50.892;16.746;2023-04-01T16:37:46;12.60;;;8.70;;
37199;SDS011;23096;50.892;16.746;2023-04-01T16:45:26;17.60;;;7.80;;
37199;SDS011;23096;50.892;16.746;2023-04-01T16:48:06;9.90;;;6.40;;
37199;SDS011;23096;50.892;16.746;2023-04-01T16:50:51;7.70;;;4.80;;
37199;SDS011;23096;50.892;16.746;2023-04-01T16:56:02;5.70;;;3.60;;
37199;SDS011;23096;50.892;16.746;2023-04-01T16:58:37;4.00;;;3.50;;
37199;SDS011;23096;50.892;16.746;2023-04-01T17:01:14;99.50;;;28.00;;
37199;SDS011;23096;50.892;16.746;2023-04-01T17:03:46;18.50;;;6.40;;
37199;SDS011;23096;50.892;16.746;2023-04-01T17:06:23;8.60;;;4.40;;
37199;SDS011;23096;50.892;16.746;2023-04-01T17:12:13;5.90;;;3.60;;
37199;SDS011;23096;50.892;16.746;2023-04-01T17:17:53;5.50;;;3.70;;
37199;SDS011;23096;50.892;16.746;2023-04-01T17:25:52;7.40;;;4.40;;
37199;SDS011;23096;50.892;16.746;2023-04-01T17:28:29;7.00;;;4.90;;
37199;SDS011;23096;50.892;16.746;2023-04-01T17:39:40;19.80;;;9.00;;
37199;SDS011;23096;50.892;16.746;2023-04-01T17:42:15;35.90;;;17.50;;
37199;SDS011;23096;50.892;16.746;2023-04-01T17:49:52;40.40;;;20.20;;
37199;SDS011;23096;50.892;16.746;2023-04-01T18:00:18;14.40;;;8.00;;
37199;SDS011;23096;50.892;16.746;2023-04-01T18:08:56;8.00;;;5.80;;
37199;SDS011;23096;50.892;16.746;2023-04-01T18:11:41;9.00;;;6.20;;
37199;SDS011;23096;50.892;16.746;2023-04-01T18:19:36;49.50;;;28.40;;
37199;SDS011;23096;50.892;16.746;2023-04-01T18:22:26;31.00;;;18.10;;
37199;SDS011;23096;50.892;16.746;2023-04-01T18:27:36;25.70;;;11.10;;
37199;SDS011;23096;50.892;16.746;2023-04-01T18:35:56;8.30;;;4.90;;
37199;SDS011;23096;50.892;16.746;2023-04-01T18:38:31;6.10;;;3.80;;
37199;SDS011;23096;50.892;16.746;2023-04-01T18:41:12;3.80;;;3.00;;
37199;SDS011;23096;50.892;16.746;2023-04-01T18:43:46;4.30;;;2.90;;
37199;SDS011;23096;50.892;16.746;2023-04-01T18:46:30;4.10;;;3.30;;
37199;SDS011;23096;50.892;16.746;2023-04-01T18:51:59;4.20;;;3.60;;
37199;SDS011;23096;50.892;16.746;2023-04-01T18:54:40;4.20;;;1.90;;
37199;SDS011;23096;50.892;16.746;2023-04-01T18:57:15;2.10;;;1.20;;
37199;SDS011;23096;50.892;16.746;2023-04-01T19:02:36;2.50;;;1.80;;
37199;SDS011;23096;50.892;16.746;2023-04-01T19:07:42;3.60;;;3.20;;
37199;SDS011;23096;50.892;16.746;2023-04-01T19:10:15;10.90;;;6.80;;
37199;SDS011;23096;50.892;16.746;2023-04-01T19:15:27;4.40;;;3.40;;
37199;SDS011;23096;50.892;16.746;2023-04-01T19:18:16;4.30;;;3.90;;
37199;SDS011;23096;50.892;16.746;2023-04-01T19:21:14;2.80;;;2.60;;
37199;SDS011;23096;50.892;16.746;2023-04-01T19:26:48;2.20;;;1.50;;
37199;SDS011;23096;50.892;16.746;2023-04-01T19:34:54;3.90;;;2.00;;
37199;SDS011;23096;50.892;16.746;2023-04-01T19:37:33;4.50;;;2.00;;
37199;SDS011;23096;50.892;16.746;2023-04-01T19:43:22;2.00;;;1.80;;
37199;SDS011;23096;50.892;16.746;2023-04-01T19:48:37;2.60;;;2.20;;
37199;SDS011;23096;50.892;16.746;2023-04-01T19:52:02;3.10;;;1.70;;
37199;SDS011;23096;50.892;16.746;2023-04-01T19:54:54;3.80;;;2.40;;
37199;SDS011;23096;50.892;16.746;2023-04-01T20:06:17;5.40;;;2.60;;
37199;SDS011;23096;50.892;16.746;2023-04-01T20:12:04;2.70;;;2.20;;
37199;SDS011;23096;50.892;16.746;2023-04-01T20:14:51;4.80;;;2.90;;
37199;SDS011;23096;50.892;16.746;2023-04-01T20:17:23;3.80;;;2.50;;
37199;SDS011;23096;50.892;16.746;2023-04-01T20:19:58;7.60;;;2.30;;
37199;SDS011;23096;50.892;16.746;2023-04-01T20:27:33;3.20;;;2.70;;
37199;SDS011;23096;50.892;16.746;2023-04-01T20:41:32;30.30;;;20.00;;
37199;SDS011;23096;50.892;16.746;2023-04-01T20:44:19;41.10;;;24.50;;
37199;SDS011;23096;50.892;16.746;2023-04-01T21:10:12;37.40;;;24.00;;
37199;SDS011;23096;50.892;16.746;2023-04-01T21:26:19;36.00;;;23.90;;
37199;SDS011;23096;50.892;16.746;2023-04-01T21:29:06;35.20;;;23.40;;
37199;SDS011;23096;50.892;16.746;2023-04-01T21:31:47;31.00;;;21.30;;
37199;SDS011;23096;50.892;16.746;2023-04-01T21:48:25;31.10;;;20.90;;
37199;SDS011;23096;50.892;16.746;2023-04-01T21:54:22;30.50;;;19.50;;
37199;SDS011;23096;50.892;16.746;2023-04-01T22:05:28;27.90;;;20.30;;
37199;SDS011;23096;50.892;16.746;2023-04-01T22:13:29;30.40;;;21.40;;
37199;SDS011;23096;50.892;16.746;2023-04-01T22:16:21;35.70;;;22.50;;
37199;SDS011;23096;50.892;16.746;2023-04-01T22:18:57;33.70;;;22.70;;
37199;SDS011;23096;50.892;16.746;2023-04-01T22:21:46;32.10;;;21.60;;
37199;SDS011;23096;50.892;16.746;2023-04-01T22:32:14;42.10;;;26.70;;
37199;SDS011;23096;50.892;16.746;2023-04-01T22:34:53;41.90;;;26.00;;
37199;SDS011;23096;50.892;16.746;2023-04-01T22:43:34;47.70;;;27.30;;
37199;SDS011;23096;50.892;16.746;2023-04-01T22:46:09;38.80;;;26.50;;
37199;SDS011;23096;50.892;16.746;2023-04-01T22:51:38;44.90;;;29.20;;
37199;SDS011;23096;50.892;16.746;2023-04-01T22:59:35;38.50;;;27.30;;
37199;SDS011;23096;50.892;16.746;2023-04-01T23:02:14;43.60;;;28.80;;
37199;SDS011;23096;50.892;16.746;2023-04-01T23:04:47;43.20;;;27.80;;
37199;SDS011;23096;50.892;16.746;2023-04-01T23:09:51;41.70;;;26.60;;
37199;SDS011;23096;50.892;16.746;2023-04-01T23:12:20;36.80;;;25.50;;
37199;SDS011;23096;50.892;16.746;2023-04-01T23:23:00;44.70;;;26.90;;
37199;SDS011;23096;50.892;16.746;2023-04-01T23:31:25;43.40;;;29.30;;
37199;SDS011;23096;50.892;16.746;2023-04-01T23:33:56;47.50;;;29.90;;
37199;SDS011;23096;50.892;16.746;2023-04-01T23:36:29;46.50;;;29.20;;
37199;SDS011;23096;50.892;16.746;2023-04-01T23:38:56;46.40;;;30.00;;
37199;SDS011;23096;50.892;16.746;2023-04-01T23:41:26;43.00;;;28.30;;
37199;SDS011;23096;50.892;16.746;2023-04-01T23:44:03;48.60;;;30.70;;
37199;SDS011;23096;50.892;16.746;2023-04-01T23:46:31;46.90;;;30.30;;
37199;SDS011;23096;50.892;16.746;2023-04-01T23:49:00;43.40;;;28.70;;
37199;SDS011;23096;50.892;16.746;2023-04-01T23:51:29;48.80;;;29.70;;
37199;SDS011;23096;50.892;16.746;2023-04-01T23:56:41;45.60;;;29.40;;
37199;SDS011;23096;50.892;16.746;2023-04-01T23:59:16;42.20;;;27.20;;
